createdAt,value
2022-09-17T06:04:17.751Z,12.80
2022-09-17T06:06:44.185Z,12.90
2022-09-17T06:09:10.608Z,13.00
2022-09-17T06:11:37.050Z,13.00
2022-09-17T06:14:03.470Z,13.00
2022-09-17T06:16:29.994Z,13.10
2022-09-17T06:18:56.443Z,13.10
2022-09-17T06:21:22.888Z,13.10
2022-09-17T06:23:49.331Z,13.20
2022-09-17T06:26:15.753Z,13.20
2022-09-17T06:28:42.194Z,13.20
2022-09-17T06:31:08.671Z,13.30
2022-09-17T06:33:35.138Z,13.30
2022-09-17T06:36:01.604Z,13.40
2022-09-17T06:38:28.020Z,13.40
2022-09-17T06:40:54.447Z,13.40
2022-09-17T06:43:20.862Z,13.40
2022-09-17T06:45:47.325Z,13.50
2022-09-17T06:48:13.765Z,13.50
2022-09-17T06:50:42.773Z,13.50
2022-09-17T06:53:09.413Z,13.50
2022-09-17T06:55:35.836Z,13.50
2022-09-17T06:58:02.258Z,13.50
2022-09-17T07:00:28.694Z,13.60
2022-09-17T07:02:55.117Z,13.60
2022-09-17T07:05:21.557Z,13.60
2022-09-17T07:07:47.991Z,13.60
2022-09-17T07:10:14.433Z,13.60
2022-09-17T07:12:40.864Z,13.70
2022-09-17T07:15:07.296Z,13.70
2022-09-17T07:17:33.727Z,13.70
2022-09-17T07:20:00.167Z,13.70
2022-09-17T07:22:26.655Z,13.80
2022-09-17T07:24:53.096Z,13.80
2022-09-17T07:27:19.558Z,13.90
2022-09-17T07:29:46.039Z,13.90
2022-09-17T07:32:12.453Z,14.00
2022-09-17T07:34:38.882Z,14.00
2022-09-17T07:37:05.307Z,14.10
2022-09-17T07:39:31.718Z,14.20
2022-09-17T07:41:58.170Z,14.30
2022-09-17T07:44:24.589Z,14.20
2022-09-17T07:46:51.094Z,14.30
2022-09-17T07:49:17.726Z,14.30
2022-09-17T07:51:44.174Z,14.30
2022-09-17T07:54:10.613Z,14.40
2022-09-17T07:56:37.055Z,14.40
2022-09-17T07:59:03.485Z,14.50
2022-09-17T08:01:29.963Z,14.50
2022-09-17T08:03:56.430Z,14.50
2022-09-17T08:06:22.859Z,14.60
2022-09-17T08:08:49.317Z,14.70
2022-09-17T08:11:23.638Z,14.70
2022-09-17T08:13:59.140Z,14.80
2022-09-17T08:16:25.724Z,15.00
2022-09-17T08:18:52.201Z,15.20
2022-09-17T08:21:18.646Z,15.30
2022-09-17T08:23:45.112Z,15.40
2022-09-17T08:26:11.552Z,15.40
2022-09-17T08:28:37.963Z,15.50
2022-09-17T08:31:04.457Z,15.70
2022-09-17T08:33:30.921Z,15.90
2022-09-17T08:35:57.362Z,16.10
2022-09-17T08:38:23.883Z,16.30
2022-09-17T08:40:50.313Z,16.60
2022-09-17T08:43:16.736Z,16.70
2022-09-17T08:45:43.168Z,16.60
2022-09-17T08:48:09.626Z,16.60
2022-09-17T08:50:36.070Z,16.70
2022-09-17T08:53:02.486Z,16.80
2022-09-17T08:55:28.908Z,16.80
2022-09-17T08:57:55.343Z,16.90
2022-09-17T09:00:21.767Z,16.80
2022-09-17T09:02:48.272Z,16.70
2022-09-17T09:05:14.746Z,16.70
2022-09-17T09:07:41.185Z,16.60
2022-09-17T09:10:07.624Z,16.60
2022-09-17T09:12:34.060Z,16.50
2022-09-17T09:15:00.493Z,16.40
2022-09-17T09:17:26.925Z,16.50
2022-09-17T09:19:53.345Z,16.70
2022-09-17T09:22:19.788Z,16.90
2022-09-17T09:24:46.206Z,17.10
2022-09-17T09:27:12.655Z,17.40
2022-09-17T09:29:39.068Z,17.50
2022-09-17T09:32:15.534Z,17.50
2022-09-17T09:34:42.906Z,17.60
2022-09-17T09:37:09.330Z,17.80
2022-09-17T09:39:41.201Z,18.10
2022-09-17T09:42:09.053Z,18.10
2022-09-17T09:44:35.501Z,18.30
2022-09-17T09:47:02.047Z,18.50
2022-09-17T09:49:28.600Z,18.50
2022-09-17T09:51:55.015Z,18.50
2022-09-17T09:54:21.453Z,18.30
2022-09-17T09:56:47.869Z,18.10
2022-09-17T09:59:14.301Z,18.00
2022-09-17T10:01:40.790Z,17.80
2022-09-17T10:04:07.287Z,17.80
2022-09-17T10:06:33.711Z,17.90
2022-09-17T10:09:00.155Z,18.10
2022-09-17T10:11:26.626Z,18.40
2022-09-17T10:13:53.061Z,18.50
2022-09-17T10:16:19.607Z,18.70
2022-09-17T10:18:46.121Z,18.80
2022-09-17T10:21:12.553Z,18.70
2022-09-17T10:23:38.977Z,18.40
2022-09-17T10:26:05.409Z,18.20
2022-09-17T10:28:31.848Z,18.20
2022-09-17T10:30:58.331Z,18.20
2022-09-17T10:33:24.777Z,18.40
2022-09-17T10:35:51.205Z,18.40
2022-09-17T10:38:17.620Z,18.50
2022-09-17T10:40:44.074Z,18.70
2022-09-17T10:43:10.510Z,18.90
2022-09-17T10:45:36.931Z,18.90
2022-09-17T10:48:03.340Z,18.90
2022-09-17T10:50:29.773Z,19.00
2022-09-17T10:52:56.187Z,19.00
2022-09-17T10:55:22.611Z,19.00
2022-09-17T10:57:49.032Z,19.10
2022-09-17T11:00:15.451Z,19.20
2022-09-17T11:02:41.900Z,19.50
2022-09-17T11:05:08.382Z,19.70
2022-09-17T11:07:34.796Z,19.90
2022-09-17T11:10:01.233Z,19.80
2022-09-17T11:12:27.668Z,19.40
2022-09-17T11:14:54.088Z,18.90
2022-09-17T11:17:20.514Z,18.50
2022-09-17T11:19:46.932Z,18.30
2022-09-17T11:22:13.364Z,18.00
2022-09-17T11:24:39.773Z,17.80
2022-09-17T11:27:06.211Z,17.60
2022-09-17T12:15:27.139Z,19.00
2022-09-17T12:18:08.746Z,18.60
2022-09-17T12:20:39.980Z,18.40
2022-09-17T12:23:06.392Z,18.00
2022-09-17T12:25:32.838Z,18.10
2022-09-17T12:27:59.277Z,18.10
2022-09-17T12:30:25.705Z,18.00
2022-09-17T12:32:52.142Z,17.90
2022-09-17T12:35:18.592Z,17.90
2022-09-17T12:37:45.029Z,17.90
2022-09-17T12:40:11.629Z,18.10
2022-09-17T12:42:38.153Z,18.20
2022-09-17T12:45:04.573Z,18.30
2022-09-17T12:47:31.029Z,18.40
2022-09-17T12:49:57.473Z,18.50
2022-09-17T12:52:23.917Z,18.60
2022-09-17T12:54:50.371Z,18.70
2022-09-17T12:57:16.809Z,18.80
2022-09-17T12:59:43.235Z,18.90
2022-09-17T13:02:09.672Z,19.10
2022-09-17T13:04:57.203Z,19.10
2022-09-17T13:07:22.551Z,18.70
2022-09-17T13:09:48.976Z,18.10
2022-09-17T13:12:15.392Z,17.50
2022-09-17T13:14:41.838Z,17.20
2022-09-17T13:17:08.260Z,17.10
2022-09-17T13:19:34.699Z,17.10
2022-09-17T13:22:01.122Z,17.30
2022-09-17T13:24:27.557Z,17.50
2022-09-17T13:26:53.995Z,17.70
2022-09-17T13:29:20.418Z,17.90
2022-09-17T13:31:46.915Z,18.10
2022-09-17T13:34:13.357Z,18.30
2022-09-17T13:36:39.792Z,18.40
2022-09-17T13:39:06.212Z,18.30
2022-09-17T13:41:32.649Z,18.10
2022-09-17T13:43:59.073Z,18.00
2022-09-17T13:46:25.577Z,17.70
2022-09-17T13:48:52.045Z,17.40
2022-09-17T13:51:18.472Z,17.20
2022-09-17T13:53:44.910Z,17.00
2022-09-17T13:56:11.357Z,16.80
2022-09-17T13:58:37.763Z,16.80
2022-09-17T14:01:04.246Z,16.70
2022-09-17T14:03:30.715Z,16.90
2022-09-17T14:05:57.155Z,17.10
2022-09-17T14:08:23.569Z,17.30
2022-09-17T14:10:50.003Z,17.50
2022-09-17T14:13:16.437Z,17.70
2022-09-17T14:15:42.873Z,17.80
2022-09-17T14:18:09.301Z,17.80
2022-09-17T14:20:35.729Z,17.90
2022-09-17T14:23:02.161Z,18.10
2022-09-17T14:25:28.576Z,18.20
2022-09-17T14:27:55.125Z,18.30
2022-09-17T14:30:21.562Z,18.40
2022-09-17T14:32:47.988Z,18.50
2022-09-17T14:35:19.254Z,18.50
2022-09-17T14:37:46.486Z,18.30
2022-09-17T14:40:12.967Z,18.30
2022-09-17T14:42:39.433Z,18.30
2022-09-17T14:45:05.864Z,18.30
2022-09-17T14:47:32.309Z,18.20
2022-09-17T14:49:58.805Z,18.10
2022-09-17T14:52:25.246Z,18.00
2022-09-17T14:54:51.663Z,17.80
2022-09-17T14:57:18.103Z,17.60
2022-09-17T14:59:44.539Z,17.50
2022-09-17T15:02:11.031Z,17.50
2022-09-17T15:04:37.473Z,17.60
2022-09-17T15:07:03.892Z,17.60
2022-09-17T15:09:30.329Z,17.50
2022-09-17T15:11:56.739Z,17.50
2022-09-17T15:14:23.173Z,17.40
2022-09-17T15:16:49.598Z,17.30
2022-09-17T15:19:16.028Z,17.20
2022-09-17T15:21:42.473Z,17.20
2022-09-17T15:24:08.904Z,17.30
2022-09-17T15:26:35.329Z,17.40
2022-09-17T15:29:01.757Z,17.40
2022-09-17T15:31:28.239Z,17.50
2022-09-17T15:33:54.701Z,17.50
2022-09-17T15:36:21.143Z,17.60
2022-09-17T15:38:47.574Z,17.60
2022-09-17T15:41:17.612Z,17.50
2022-09-17T15:43:46.597Z,17.40
2022-09-17T15:46:13.086Z,17.20
2022-09-17T15:48:39.563Z,17.00
2022-09-17T15:51:06.009Z,16.90
2022-09-17T15:53:32.427Z,16.80
2022-09-17T15:55:58.869Z,16.60
2022-09-17T15:58:25.301Z,16.40
2022-09-17T16:00:51.742Z,16.20
2022-09-17T16:03:18.160Z,16.10
2022-09-17T16:05:44.662Z,16.10
2022-09-17T16:08:11.098Z,16.00
2022-09-17T16:10:37.528Z,16.00
2022-09-17T16:13:03.974Z,15.90
2022-09-17T16:15:30.415Z,15.90
2022-09-17T16:17:56.845Z,15.90
2022-09-17T16:20:23.294Z,15.90
2022-09-17T16:22:49.737Z,15.90
2022-09-17T16:25:16.176Z,15.90
2022-09-17T16:27:42.607Z,15.90
2022-09-17T16:30:09.037Z,15.90
2022-09-17T16:32:35.474Z,15.90
2022-09-17T16:35:01.923Z,15.90
2022-09-17T16:37:28.363Z,15.80
2022-09-17T16:39:54.860Z,15.80
2022-09-17T16:42:21.345Z,15.70
2022-09-17T16:44:47.778Z,15.70
2022-09-17T16:47:14.216Z,15.70
2022-09-17T16:49:40.652Z,15.80
2022-09-17T16:52:07.094Z,15.80
2022-09-17T16:54:33.544Z,15.70
2022-09-17T16:56:59.972Z,15.70
2022-09-17T16:59:26.403Z,15.70
2022-09-17T17:01:52.853Z,15.70
2022-09-17T17:04:19.276Z,15.70
2022-09-17T17:06:45.707Z,15.60
2022-09-17T17:09:12.145Z,15.60
2022-09-17T17:11:38.585Z,15.60
2022-09-17T17:14:05.025Z,15.50
2022-09-17T17:16:31.542Z,15.50
2022-09-17T17:18:58.020Z,15.50
2022-09-17T17:21:24.451Z,15.40
2022-09-17T17:23:50.885Z,15.40
2022-09-17T17:26:17.343Z,15.30
2022-09-17T17:28:43.777Z,15.20
2022-09-17T17:31:10.304Z,15.10
2022-09-17T17:33:36.749Z,15.10
2022-09-17T17:36:07.940Z,15.10
2022-09-17T17:38:34.835Z,15.10
2022-09-17T17:41:01.271Z,15.10
2022-09-17T17:43:27.706Z,15.00
2022-09-17T17:45:54.158Z,15.00
2022-09-17T17:48:20.585Z,15.00
2022-09-17T17:50:47.022Z,14.90
2022-09-17T17:53:13.471Z,14.90
2022-09-17T17:55:39.879Z,14.90
2022-09-17T17:58:06.301Z,14.90
2022-09-17T18:00:32.729Z,14.90
2022-09-17T18:02:59.205Z,14.90
2022-09-17T18:05:25.672Z,14.90
2022-09-17T18:07:52.099Z,14.90
2022-09-17T18:10:18.530Z,14.90
2022-09-17T18:12:45.040Z,14.90
2022-09-17T18:15:11.458Z,14.90
2022-09-17T18:17:37.904Z,14.80
2022-09-17T18:20:04.348Z,14.80
2022-09-17T18:22:30.802Z,14.80
2022-09-17T18:24:57.244Z,14.80
2022-09-17T18:27:23.679Z,14.70
2022-09-17T18:29:50.119Z,14.70
2022-09-17T18:32:16.553Z,14.70
2022-09-17T18:34:43.212Z,14.70
2022-09-17T18:37:09.637Z,14.70
2022-09-17T18:42:22.488Z,14.70
2022-09-17T18:44:48.918Z,14.60
2022-09-17T18:47:15.331Z,14.60
2022-09-17T18:49:41.765Z,14.60
2022-09-17T18:52:08.187Z,14.60
2022-09-17T18:54:34.637Z,14.60
2022-09-17T18:57:01.057Z,14.60
2022-09-17T18:59:27.483Z,14.60
2022-09-17T19:01:54.003Z,14.60
2022-09-17T19:04:20.501Z,14.60
2022-09-17T19:06:46.918Z,14.60
2022-09-17T19:09:13.350Z,14.60
2022-09-17T19:11:39.766Z,14.60
2022-09-17T19:14:06.217Z,14.60
2022-09-17T19:16:32.706Z,14.50
2022-09-17T19:18:59.188Z,14.50
2022-09-17T19:21:25.605Z,14.50
2022-09-17T19:23:52.038Z,14.50
2022-09-17T19:26:18.461Z,14.50
2022-09-17T19:28:44.901Z,14.50
2022-09-17T19:31:11.338Z,14.50
2022-09-17T19:33:37.819Z,14.50
2022-09-17T19:36:04.244Z,14.50
2022-09-17T19:38:30.698Z,14.40
2022-09-17T19:40:57.113Z,14.40
2022-09-17T19:43:23.557Z,14.30
2022-09-17T19:45:49.979Z,14.30
2022-09-17T19:48:16.407Z,14.30
2022-09-17T19:50:42.828Z,14.30
2022-09-17T19:53:09.254Z,14.20
2022-09-17T19:55:35.702Z,14.20
2022-09-17T19:58:02.119Z,14.20
2022-09-17T20:00:28.567Z,14.20
2022-09-17T20:02:55.019Z,14.20
2022-09-17T20:05:21.498Z,14.20
2022-09-17T20:07:47.912Z,14.10
2022-09-17T20:10:14.357Z,14.20
2022-09-17T20:12:40.794Z,14.10
2022-09-17T20:15:07.216Z,14.20
2022-09-17T20:17:33.643Z,14.10
